Time;durP1;ratioP1;P1;durP2;ratioP2;P2;SDS_P1;SDS_P2;PMS_P1;PMS_P2;Temp;Humidity;BMP_temperature;BMP_pressure;BME280_temperature;BME280_humidity;BME280_pressure;Samples;Min_cycle;Max_cycle;Signal;HPM_P1;HPM_P2
2023/09/26 00:00:06;;;;;;;5.30;1.80;;;11.50;99.90;;;;;;4973261;28;20170;-79
2023/09/26 00:02:32;;;;;;;6.23;2.10;;;11.50;99.90;;;;;;4973768;28;20248;-76
2023/09/26 00:04:58;;;;;;;4.50;2.07;;;11.40;99.90;;;;;;4973526;28;20554;-76
2023/09/26 00:07:23;;;;;;;6.27;2.00;;;11.40;99.90;;;;;;4973432;28;20281;-76
2023/09/26 00:09:49;;;;;;;4.67;1.73;;;11.40;99.90;;;;;;4972387;28;20564;-76
2023/09/26 00:12:14;;;;;;;5.33;1.80;;;11.30;99.90;;;;;;4972209;28;20694;-76
2023/09/26 00:14:40;;;;;;;6.80;2.03;;;11.30;99.90;;;;;;4972312;28;20564;-76
2023/09/26 00:17:08;;;;;;;5.73;1.90;;;11.30;99.90;;;;;;4972837;28;20546;-78
2023/09/26 00:19:34;;;;;;;5.37;2.00;;;11.20;99.90;;;;;;4972082;28;20265;-76
2023/09/26 00:22:00;;;;;;;6.53;2.10;;;11.20;99.90;;;;;;4973973;28;20280;-76
2023/09/26 00:24:25;;;;;;;7.73;2.07;;;11.20;99.90;;;;;;4972481;28;20225;-76
2023/09/26 00:26:51;;;;;;;3.40;1.93;;;11.20;99.90;;;;;;4973953;28;20170;-76
2023/09/26 00:29:16;;;;;;;3.77;1.90;;;11.10;99.90;;;;;;4973803;28;20209;-76
2023/09/26 00:31:42;;;;;;;7.03;2.07;;;11.20;99.90;;;;;;4960677;28;20207;-76
2023/09/26 00:34:07;;;;;;;4.07;1.90;;;11.20;99.90;;;;;;4954913;29;20179;-76
2023/09/26 00:36:33;;;;;;;4.53;2.30;;;11.10;99.90;;;;;;4954429;29;20194;-76
2023/09/26 00:38:58;;;;;;;3.97;2.10;;;11.10;99.90;;;;;;4961111;28;20190;-76
2023/09/26 00:41:24;;;;;;;4.33;2.17;;;11.10;99.90;;;;;;4973450;28;20194;-76
2023/09/26 00:43:50;;;;;;;2.80;2.03;;;11.10;99.90;;;;;;4973938;28;20214;-76
2023/09/26 00:46:18;;;;;;;6.67;2.13;;;11.10;99.90;;;;;;4970434;28;20562;-76
2023/09/26 00:48:44;;;;;;;6.50;2.10;;;11.00;99.90;;;;;;4973408;28;20621;-76
2023/09/26 00:51:10;;;;;;;3.90;2.03;;;11.00;99.90;;;;;;4973202;28;20199;-77
2023/09/26 00:53:38;;;;;;;3.27;2.07;;;11.00;99.90;;;;;;4972211;28;20657;-76
2023/09/26 00:56:04;;;;;;;3.87;1.97;;;11.00;99.90;;;;;;4972153;28;20557;-76
2023/09/26 00:58:31;;;;;;;3.53;1.80;;;11.00;99.90;;;;;;4973717;28;20182;-77
2023/09/26 01:00:58;;;;;;;6.67;1.90;;;11.00;99.90;;;;;;4972796;28;20175;-76
2023/09/26 01:03:24;;;;;;;4.27;2.30;;;11.00;99.90;;;;;;4972205;28;20183;-76
2023/09/26 01:05:49;;;;;;;3.37;1.97;;;11.00;99.90;;;;;;4972115;28;20182;-76
2023/09/26 01:08:15;;;;;;;2.37;2.00;;;11.00;99.90;;;;;;4972183;28;20718;-76
2023/09/26 01:10:42;;;;;;;6.97;2.23;;;11.00;99.90;;;;;;4973707;28;20615;-76
2023/09/26 01:13:08;;;;;;;5.20;2.20;;;11.00;99.90;;;;;;4971759;28;20202;-76
2023/09/26 01:15:38;;;;;;;3.43;2.20;;;11.00;99.90;;;;;;4973580;28;20250;-76
2023/09/26 01:18:15;;;;;;;3.83;2.13;;;11.00;99.90;;;;;;4971798;28;20186;-77
2023/09/26 01:20:45;;;;;;;2.17;1.87;;;11.00;99.90;;;;;;4971933;28;20181;-76
2023/09/26 01:23:14;;;;;;;7.80;2.40;;;11.00;99.90;;;;;;4973446;28;20209;-77
2023/09/26 01:25:43;;;;;;;6.07;2.13;;;10.90;99.90;;;;;;4973413;28;20198;-76
2023/09/26 01:31:34;;;;;;;3.40;1.93;;;10.80;99.90;;;;;;4975529;28;20197;-76
2023/09/26 01:34:00;;;;;;;4.53;2.10;;;10.80;99.90;;;;;;4972796;28;20341;-77
2023/09/26 01:36:27;;;;;;;6.43;2.13;;;10.70;99.90;;;;;;4976780;28;20253;-77
2023/09/26 01:38:53;;;;;;;4.57;2.10;;;10.70;99.90;;;;;;4975149;28;20197;-76
2023/09/26 01:41:23;;;;;;;5.13;2.30;;;10.70;99.90;;;;;;4976573;28;20596;-76
2023/09/26 01:43:49;;;;;;;7.10;2.20;;;10.70;99.90;;;;;;4964769;28;20215;-77
2023/09/26 01:46:15;;;;;;;4.97;2.33;;;10.70;99.90;;;;;;4957876;28;20190;-76
2023/09/26 01:48:40;;;;;;;3.60;1.93;;;10.70;99.90;;;;;;4976006;28;20688;-77
2023/09/26 01:51:06;;;;;;;5.07;2.03;;;10.60;99.90;;;;;;4976235;28;20174;-77
2023/09/26 01:53:32;;;;;;;3.47;1.73;;;10.50;99.90;;;;;;4974851;28;20178;-76
2023/09/26 01:56:00;;;;;;;4.07;2.50;;;10.50;99.90;;;;;;4974401;28;20258;-78
2023/09/26 01:58:26;;;;;;;6.07;2.47;;;10.50;99.90;;;;;;4956872;29;20202;-76
2023/09/26 02:00:52;;;;;;;2.27;1.80;;;10.50;99.90;;;;;;4956802;29;20187;-76
2023/09/26 02:03:17;;;;;;;4.27;2.40;;;10.50;99.90;;;;;;4956965;28;20205;-76
2023/09/26 02:05:43;;;;;;;4.87;1.90;;;10.40;99.90;;;;;;4956867;29;20206;-75
2023/09/26 02:08:08;;;;;;;2.93;1.80;;;10.40;99.90;;;;;;4973271;28;20193;-76
2023/09/26 02:10:34;;;;;;;5.63;2.17;;;10.40;99.90;;;;;;4975951;28;20694;-75
2023/09/26 02:13:00;;;;;;;7.57;2.87;;;10.40;99.90;;;;;;4974427;28;20568;-76
2023/09/26 02:15:26;;;;;;;4.47;2.17;;;10.40;99.90;;;;;;4975868;28;20229;-76
2023/09/26 02:17:51;;;;;;;1.70;1.57;;;10.30;99.90;;;;;;4973968;28;20175;-75
2023/09/26 02:20:18;;;;;;;7.93;1.93;;;10.40;99.90;;;;;;4975717;28;20193;-75
2023/09/26 02:22:46;;;;;;;2.30;1.90;;;10.30;99.90;;;;;;4976040;28;20248;-75
2023/09/26 02:25:13;;;;;;;4.73;2.10;;;10.30;99.90;;;;;;4975699;28;20186;-75
2023/09/26 02:27:41;;;;;;;4.77;1.80;;;10.30;99.90;;;;;;4974734;28;20186;-75
2023/09/26 02:30:08;;;;;;;4.10;1.73;;;10.30;99.90;;;;;;4975625;28;20193;-75
2023/09/26 02:32:34;;;;;;;4.80;1.80;;;10.30;99.90;;;;;;4975373;28;20269;-76
2023/09/26 02:35:03;;;;;;;5.00;2.00;;;10.30;99.90;;;;;;4971625;28;20190;-76
2023/09/26 02:37:28;;;;;;;5.43;2.00;;;10.30;99.90;;;;;;4975488;28;20178;-75
2023/09/26 02:39:54;;;;;;;2.70;2.17;;;10.30;99.90;;;;;;4975727;28;20171;-75
2023/09/26 02:42:19;;;;;;;4.50;2.20;;;10.20;99.90;;;;;;4974462;28;20190;-76
2023/09/26 02:44:45;;;;;;;4.90;1.80;;;10.20;99.90;;;;;;4974584;28;20190;-75
2023/09/26 02:47:11;;;;;;;3.00;1.63;;;10.20;99.90;;;;;;4975315;28;20167;-75
2023/09/26 02:49:36;;;;;;;3.87;1.83;;;10.20;99.90;;;;;;4974215;28;20202;-75
2023/09/26 02:52:02;;;;;;;5.90;2.13;;;10.20;99.90;;;;;;4973760;28;20544;-76
2023/09/26 02:54:28;;;;;;;4.03;1.90;;;10.10;99.90;;;;;;4972855;28;20182;-76
2023/09/26 02:56:53;;;;;;;6.17;2.10;;;10.10;99.90;;;;;;4975118;28;20170;-75
2023/09/26 02:59:19;;;;;;;3.40;2.37;;;10.10;99.90;;;;;;4975046;28;20178;-75
2023/09/26 03:01:44;;;;;;;4.20;1.87;;;10.10;99.90;;;;;;4973620;28;20198;-75
2023/09/26 03:04:10;;;;;;;3.13;2.00;;;10.10;99.90;;;;;;4973967;28;20274;-75
2023/09/26 03:06:35;;;;;;;3.40;1.83;;;10.10;99.90;;;;;;4973785;28;20189;-75
2023/09/26 03:09:01;;;;;;;4.63;2.30;;;10.00;99.90;;;;;;4974459;28;20190;-77
2023/09/26 03:11:26;;;;;;;5.53;2.10;;;10.00;99.90;;;;;;4972959;28;20249;-75
2023/09/26 03:13:52;;;;;;;3.83;2.03;;;10.00;99.90;;;;;;4972205;28;20193;-75
2023/09/26 03:16:18;;;;;;;6.17;2.33;;;10.00;99.90;;;;;;4974717;28;20717;-75
2023/09/26 03:18:44;;;;;;;6.47;1.90;;;9.90;99.90;;;;;;4974782;28;20647;-76
2023/09/26 03:21:11;;;;;;;2.77;2.00;;;9.90;99.90;;;;;;4974416;28;20178;-76
2023/09/26 03:23:37;;;;;;;3.17;2.10;;;9.90;99.90;;;;;;4966452;28;20559;-75
2023/09/26 03:26:10;;;;;;;4.03;2.47;;;9.90;99.90;;;;;;4954070;29;20186;-75
2023/09/26 03:28:36;;;;;;;10.63;2.27;;;9.90;99.90;;;;;;4955376;29;20186;-75
2023/09/26 03:31:05;;;;;;;4.10;2.20;;;9.90;99.90;;;;;;4953634;28;20171;-76
2023/09/26 03:33:32;;;;;;;4.77;2.20;;;9.90;99.90;;;;;;4959652;28;20272;-75
2023/09/26 03:35:58;;;;;;;4.10;2.00;;;9.90;99.90;;;;;;4973249;28;20559;-77
2023/09/26 03:38:23;;;;;;;5.53;2.20;;;9.90;99.90;;;;;;4972775;28;20190;-75
2023/09/26 03:41:04;;;;;;;4.60;2.17;;;9.90;99.90;;;;;;4974280;28;20198;-76
2023/09/26 03:43:29;;;;;;;3.40;1.97;;;9.80;99.90;;;;;;4973337;28;20182;-75
2023/09/26 03:46:02;;;;;;;3.83;2.23;;;9.80;99.90;;;;;;4972380;28;20190;-77
2023/09/26 03:48:28;;;;;;;2.83;2.10;;;9.80;99.90;;;;;;4972782;28;20211;-76
2023/09/26 03:50:53;;;;;;;5.80;2.57;;;9.80;99.90;;;;;;4973513;28;20260;-75
2023/09/26 03:53:19;;;;;;;3.97;2.20;;;9.80;99.90;;;;;;4973804;28;20194;-76
2023/09/26 03:55:56;;;;;;;3.13;2.10;;;9.80;99.90;;;;;;4972825;28;20642;-75
2023/09/26 03:58:21;;;;;;;4.50;2.20;;;9.70;99.90;;;;;;4971832;28;20539;-76
2023/09/26 04:00:47;;;;;;;4.33;2.20;;;9.70;99.90;;;;;;4972970;28;20201;-75
2023/09/26 04:03:13;;;;;;;4.47;1.90;;;9.60;99.90;;;;;;4973678;28;20194;-75
2023/09/26 04:05:39;;;;;;;3.70;2.13;;;9.60;99.90;;;;;;4973863;28;20166;-76
2023/09/26 04:08:05;;;;;;;6.03;2.20;;;9.60;99.90;;;;;;4973339;28;20547;-75
2023/09/26 04:10:36;;;;;;;3.93;2.03;;;9.60;99.90;;;;;;4972476;28;20214;-76
2023/09/26 04:13:01;;;;;;;7.40;2.10;;;9.60;99.90;;;;;;4973756;28;20204;-75
2023/09/26 04:15:27;;;;;;;3.67;1.97;;;9.60;99.90;;;;;;4973590;28;20174;-75
2023/09/26 04:17:52;;;;;;;4.43;2.30;;;9.60;99.90;;;;;;4972659;28;20225;-75
2023/09/26 04:20:19;;;;;;;3.33;2.33;;;9.60;99.90;;;;;;4972587;28;20229;-75
2023/09/26 04:22:46;;;;;;;2.67;1.97;;;9.60;99.90;;;;;;4973779;28;20281;-75
2023/09/26 04:25:12;;;;;;;4.67;2.10;;;9.60;99.90;;;;;;4972715;28;20185;-75
2023/09/26 04:27:37;;;;;;;3.07;2.07;;;9.60;99.90;;;;;;4971681;28;20608;-75
2023/09/26 04:30:04;;;;;;;3.00;2.13;;;9.60;99.90;;;;;;4973689;28;20209;-75
2023/09/26 04:32:30;;;;;;;6.13;1.90;;;9.60;99.90;;;;;;4972553;28;20190;-75
2023/09/26 04:34:56;;;;;;;3.63;2.17;;;9.60;99.90;;;;;;4972802;28;20253;-75
2023/09/26 04:37:21;;;;;;;5.80;2.43;;;9.60;99.90;;;;;;4972839;28;20189;-76
2023/09/26 04:39:47;;;;;;;2.77;1.87;;;9.60;99.90;;;;;;4972399;28;20189;-76
2023/09/26 04:42:12;;;;;;;2.23;1.73;;;9.50;99.90;;;;;;4973689;28;20285;-76
2023/09/26 04:44:38;;;;;;;4.63;2.33;;;9.50;99.90;;;;;;4973555;28;20278;-76
2023/09/26 04:47:03;;;;;;;4.33;2.50;;;9.40;99.90;;;;;;4972658;28;20178;-76
2023/09/26 04:49:29;;;;;;;3.40;2.03;;;9.50;99.90;;;;;;4972156;28;20688;-76
2023/09/26 04:51:54;;;;;;;7.10;2.57;;;9.40;99.90;;;;;;4972460;28;20655;-76
2023/09/26 04:54:20;;;;;;;2.97;2.07;;;9.50;99.90;;;;;;4972371;28;20175;-76
2023/09/26 04:56:46;;;;;;;7.97;2.00;;;9.50;99.90;;;;;;4973089;28;20596;-76
2023/09/26 04:59:12;;;;;;;5.13;2.20;;;9.50;99.90;;;;;;4973621;28;20522;-76
2023/09/26 05:01:37;;;;;;;6.20;2.30;;;9.50;99.90;;;;;;4971987;28;20205;-76
2023/09/26 05:04:03;;;;;;;4.17;2.20;;;9.50;99.90;;;;;;4973609;28;20175;-76
2023/09/26 05:06:29;;;;;;;3.23;2.37;;;9.50;99.90;;;;;;4974995;28;20183;-76
2023/09/26 05:08:55;;;;;;;2.80;2.20;;;9.40;99.90;;;;;;4977209;28;20666;-75
2023/09/26 05:11:20;;;;;;;3.17;2.30;;;9.40;99.90;;;;;;4977459;28;20301;-77
2023/09/26 05:13:46;;;;;;;6.77;2.27;;;9.40;99.90;;;;;;4976110;28;20265;-78
2023/09/26 05:16:14;;;;;;;3.57;2.03;;;9.40;99.90;;;;;;4977181;28;20173;-80
2023/09/26 05:18:39;;;;;;;3.67;1.90;;;9.40;99.90;;;;;;4977071;28;20637;-78
2023/09/26 05:21:06;;;;;;;3.03;2.10;;;9.30;99.90;;;;;;4980107;28;20189;-78
2023/09/26 05:23:32;;;;;;;3.43;2.00;;;9.30;99.90;;;;;;4976601;28;20179;-77
2023/09/26 05:26:08;;;;;;;4.73;2.03;;;9.30;99.90;;;;;;4965315;28;20187;-77
2023/09/26 05:28:33;;;;;;;5.93;2.37;;;9.30;99.90;;;;;;4979539;28;20205;-78
2023/09/26 05:30:59;;;;;;;5.00;2.50;;;9.30;99.90;;;;;;4983350;28;20225;-79
2023/09/26 05:33:25;;;;;;;4.30;2.60;;;9.30;99.90;;;;;;4979650;28;20212;-78
2023/09/26 05:35:53;;;;;;;5.73;2.37;;;9.30;99.90;;;;;;4976090;28;20230;-77
2023/09/26 05:38:19;;;;;;;3.43;2.07;;;9.30;99.90;;;;;;4978679;28;20186;-78
2023/09/26 05:40:44;;;;;;;4.50;2.43;;;9.30;99.90;;;;;;4976502;28;20182;-78
2023/09/26 05:43:10;;;;;;;3.03;2.13;;;9.30;99.90;;;;;;4976553;28;20746;-78
2023/09/26 05:45:35;;;;;;;4.47;1.97;;;9.30;99.90;;;;;;4977007;28;20265;-78
2023/09/26 05:48:01;;;;;;;7.17;2.40;;;9.40;99.90;;;;;;4975137;28;20661;-78
2023/09/26 05:50:26;;;;;;;3.40;2.03;;;9.40;99.90;;;;;;4976568;28;20514;-78
2023/09/26 05:52:52;;;;;;;3.47;2.30;;;9.40;99.90;;;;;;4976231;28;20233;-78
2023/09/26 05:55:17;;;;;;;5.33;2.50;;;9.40;99.90;;;;;;4976092;28;20245;-80
2023/09/26 05:57:43;;;;;;;3.50;2.17;;;9.40;99.90;;;;;;4976727;28;20197;-78
2023/09/26 06:00:12;;;;;;;4.50;2.20;;;9.40;99.90;;;;;;4976343;28;20236;-78
2023/09/26 06:02:38;;;;;;;3.57;2.50;;;9.40;99.90;;;;;;4977401;28;20681;-78
2023/09/26 06:05:04;;;;;;;4.07;2.33;;;9.40;99.90;;;;;;4977395;28;20181;-78
2023/09/26 06:07:29;;;;;;;6.30;2.80;;;9.50;99.90;;;;;;4976760;28;20194;-78
2023/09/26 06:09:55;;;;;;;5.20;2.10;;;9.40;99.90;;;;;;4977152;28;20194;-77
2023/09/26 06:12:21;;;;;;;3.20;2.20;;;9.50;99.90;;;;;;4975603;28;20533;-78
2023/09/26 06:14:47;;;;;;;3.57;2.23;;;9.50;99.90;;;;;;4977216;28;20189;-78
2023/09/26 06:17:12;;;;;;;4.00;2.20;;;9.50;99.90;;;;;;4972837;28;20189;-78
2023/09/26 06:19:39;;;;;;;3.77;2.20;;;9.60;99.90;;;;;;4973191;28;20264;-78
2023/09/26 06:22:05;;;;;;;4.40;2.10;;;9.50;99.90;;;;;;4974006;28;20682;-78
2023/09/26 06:24:31;;;;;;;4.10;2.20;;;9.60;99.90;;;;;;4975926;28;20208;-77
2023/09/26 06:26:56;;;;;;;4.37;2.40;;;9.60;99.90;;;;;;4977629;28;20639;-78
2023/09/26 06:29:22;;;;;;;5.20;2.40;;;9.60;99.90;;;;;;4977612;28;20264;-78
2023/09/26 06:31:47;;;;;;;3.83;2.30;;;9.60;99.90;;;;;;4975743;28;20253;-77
2023/09/26 06:34:13;;;;;;;3.17;2.53;;;9.60;99.90;;;;;;4976424;28;20193;-77
2023/09/26 06:36:39;;;;;;;6.03;2.47;;;9.60;99.90;;;;;;4975256;28;20182;-78
2023/09/26 06:39:04;;;;;;;3.80;2.67;;;9.60;99.90;;;;;;4975302;28;20202;-77
2023/09/26 06:41:30;;;;;;;4.93;2.80;;;9.70;99.90;;;;;;4976570;28;20317;-78
2023/09/26 06:43:56;;;;;;;5.57;2.67;;;9.70;99.90;;;;;;4964864;28;20186;-78
2023/09/26 06:46:21;;;;;;;5.40;2.83;;;9.70;99.90;;;;;;4969911;28;20186;-78
2023/09/26 06:48:47;;;;;;;6.77;3.00;;;9.90;99.90;;;;;;4976486;28;20704;-78
2023/09/26 06:51:12;;;;;;;3.17;2.83;;;9.80;99.90;;;;;;4974911;28;20671;-78
2023/09/26 06:53:38;;;;;;;2.60;2.37;;;9.90;99.90;;;;;;4975745;28;20194;-78
2023/09/26 06:56:06;;;;;;;3.23;2.57;;;9.90;99.90;;;;;;4976830;28;20538;-78
2023/09/26 06:58:34;;;;;;;4.83;3.40;;;9.90;99.90;;;;;;4975234;28;20186;-78
2023/09/26 07:00:59;;;;;;;3.53;2.73;;;10.00;99.90;;;;;;4976047;28;20209;-80
2023/09/26 07:03:28;;;;;;;4.23;2.73;;;10.10;99.90;;;;;;4975549;28;20194;-78
2023/09/26 07:05:54;;;;;;;3.60;2.63;;;10.10;99.90;;;;;;4976083;28;20290;-78
2023/09/26 07:08:20;;;;;;;3.13;2.37;;;10.20;99.90;;;;;;4976748;28;20680;-78
2023/09/26 07:10:46;;;;;;;5.70;2.70;;;10.30;99.90;;;;;;4976378;28;20195;-78
2023/09/26 07:13:13;;;;;;;4.50;3.17;;;10.30;99.90;;;;;;4974459;28;20206;-79
2023/09/26 07:15:40;;;;;;;3.50;3.20;;;10.40;99.90;;;;;;4976671;28;20189;-78
2023/09/26 07:18:09;;;;;;;8.07;4.10;;;10.50;99.90;;;;;;4974609;28;20190;-78
2023/09/26 07:20:43;;;;;;;4.30;3.90;;;10.50;99.90;;;;;;4974642;28;20537;-78
2023/09/26 07:23:09;;;;;;;10.13;4.60;;;10.60;99.90;;;;;;4975049;28;20207;-79
2023/09/26 07:25:34;;;;;;;7.60;4.80;;;10.70;99.90;;;;;;4974590;28;20186;-78
2023/09/26 07:28:00;;;;;;;6.33;4.83;;;10.80;99.90;;;;;;4976181;28;20255;-78
2023/09/26 07:30:25;;;;;;;9.43;5.37;;;10.90;99.90;;;;;;4976156;28;20190;-78
2023/09/26 07:32:51;;;;;;;8.73;5.97;;;11.00;99.90;;;;;;4975564;28;20588;-81
2023/09/26 07:35:17;;;;;;;7.23;6.27;;;11.20;99.90;;;;;;4974489;28;20190;-78
2023/09/26 07:37:42;;;;;;;11.17;6.93;;;11.30;99.90;;;;;;4976079;28;20190;-78
2023/09/26 07:40:09;;;;;;;10.07;6.97;;;11.50;99.90;;;;;;4974489;28;20282;-78
2023/09/26 07:42:36;;;;;;;10.77;7.50;;;11.60;99.90;;;;;;4975724;28;20198;-78
2023/09/26 07:45:01;;;;;;;10.80;7.77;;;11.80;99.90;;;;;;4975076;28;20189;-78
2023/09/26 07:47:27;;;;;;;11.40;8.00;;;11.90;99.90;;;;;;4973521;28;20193;-78
2023/09/26 07:49:52;;;;;;;11.17;7.13;;;12.10;99.90;;;;;;4973484;28;20289;-78
2023/09/26 07:52:19;;;;;;;8.97;6.93;;;12.20;99.90;;;;;;4975281;28;20635;-78
2023/09/26 07:54:45;;;;;;;10.00;6.70;;;12.30;99.90;;;;;;4975443;28;20175;-79
2023/09/26 07:57:10;;;;;;;7.00;6.30;;;12.40;99.90;;;;;;4965486;28;20279;-78
2023/09/26 07:59:37;;;;;;;9.23;5.83;;;12.50;99.90;;;;;;4956906;29;20214;-78
2023/09/26 08:02:03;;;;;;;8.43;5.03;;;12.60;99.90;;;;;;4956395;28;20203;-76
2023/09/26 08:04:28;;;;;;;7.03;4.80;;;12.70;99.90;;;;;;4956170;29;20171;-78
2023/09/26 08:06:54;;;;;;;4.73;4.33;;;12.80;99.90;;;;;;4961752;28;20186;-78
2023/09/26 08:09:19;;;;;;;6.37;4.53;;;12.90;99.90;;;;;;4973956;28;20670;-78
2023/09/26 08:11:45;;;;;;;8.87;4.40;;;13.00;99.90;;;;;;4973870;28;20194;-78
2023/09/26 08:14:10;;;;;;;7.03;3.67;;;13.10;99.90;;;;;;4974224;28;20179;-77
2023/09/26 08:16:36;;;;;;;5.00;3.70;;;13.20;99.90;;;;;;4973164;28;20267;-78
2023/09/26 08:19:01;;;;;;;4.67;3.53;;;13.30;99.90;;;;;;4974547;28;20188;-78
2023/09/26 08:21:27;;;;;;;7.27;3.67;;;13.40;99.90;;;;;;4975314;28;20578;-78
2023/09/26 08:23:54;;;;;;;4.33;3.23;;;13.50;99.90;;;;;;4975269;28;20564;-77
2023/09/26 08:26:19;;;;;;;4.57;3.17;;;13.50;99.90;;;;;;4974944;28;20186;-78
2023/09/26 08:28:45;;;;;;;5.23;2.93;;;13.60;99.90;;;;;;4969409;28;20211;-78
2023/09/26 08:31:15;;;;;;;6.20;3.00;;;13.70;99.90;;;;;;4955362;28;20254;-77
2023/09/26 08:33:43;;;;;;;3.53;2.83;;;13.80;99.90;;;;;;4955489;29;20718;-79
2023/09/26 08:36:16;;;;;;;7.10;3.07;;;13.90;99.90;;;;;;4957348;28;20196;-80
2023/09/26 08:38:43;;;;;;;3.80;2.90;;;14.00;99.90;;;;;;4959648;29;20198;-80
2023/09/26 08:41:10;;;;;;;3.80;2.60;;;14.00;99.90;;;;;;4958964;28;20179;-79
2023/09/26 08:43:36;;;;;;;7.07;2.90;;;14.20;99.90;;;;;;4959360;29;20186;-78
2023/09/26 08:46:02;;;;;;;3.93;2.73;;;14.30;99.90;;;;;;4960863;29;20241;-78
2023/09/26 08:48:28;;;;;;;4.33;2.93;;;14.40;99.90;;;;;;4978092;28;20280;-77
2023/09/26 08:50:53;;;;;;;3.73;2.63;;;14.40;99.90;;;;;;4980051;28;20228;-78
2023/09/26 08:53:19;;;;;;;2.43;2.23;;;14.50;99.90;;;;;;4979499;28;20198;-77
2023/09/26 08:55:45;;;;;;;4.77;2.63;;;14.60;99.90;;;;;;4979827;28;20170;-77
2023/09/26 08:58:13;;;;;;;6.00;3.10;;;14.70;99.90;;;;;;4977304;28;20257;-79
2023/09/26 09:00:39;;;;;;;3.77;2.80;;;14.80;99.90;;;;;;4979285;28;20284;-78
2023/09/26 09:03:04;;;;;;;4.13;2.57;;;14.90;99.90;;;;;;4978356;28;20198;-78
2023/09/26 09:05:30;;;;;;;2.83;2.17;;;14.90;99.90;;;;;;4978125;28;20174;-78
2023/09/26 09:07:55;;;;;;;4.73;2.50;;;15.00;99.90;;;;;;4973599;28;20610;-77
2023/09/26 09:10:21;;;;;;;7.00;2.53;;;15.10;99.90;;;;;;4978202;28;20662;-77
2023/09/26 09:12:50;;;;;;;4.87;2.40;;;15.20;99.90;;;;;;4980694;28;20190;-78
2023/09/26 09:15:15;;;;;;;5.57;2.53;;;15.30;99.90;;;;;;4979853;28;20179;-77
2023/09/26 09:17:49;;;;;;;4.30;2.47;;;15.30;99.90;;;;;;4975783;28;20648;-79
2023/09/26 09:20:26;;;;;;;3.30;2.20;;;15.50;99.90;;;;;;4978265;28;20666;-78
2023/09/26 09:22:59;;;;;;;4.50;2.30;;;15.50;99.90;;;;;;4979915;28;20285;-78
2023/09/26 09:25:30;;;;;;;4.07;2.20;;;15.60;99.90;;;;;;4979302;28;20173;-78
2023/09/26 09:27:59;;;;;;;3.90;2.30;;;15.70;99.90;;;;;;4977158;28;20667;-78
2023/09/26 09:30:24;;;;;;;3.63;2.37;;;15.80;99.90;;;;;;4979839;28;20230;-78
2023/09/26 09:32:50;;;;;;;5.40;2.10;;;15.80;99.90;;;;;;4979967;28;20701;-77
2023/09/26 09:35:17;;;;;;;6.97;2.17;;;15.90;99.90;;;;;;4979885;28;20177;-78
2023/09/26 09:37:46;;;;;;;9.93;2.50;;;16.00;99.90;;;;;;4967276;28;20197;-78
2023/09/26 09:40:20;;;;;;;4.00;2.37;;;16.10;99.90;;;;;;4958327;29;20546;-78
2023/09/26 09:42:48;;;;;;;4.83;2.23;;;16.20;99.90;;;;;;4960305;28;20554;-78
2023/09/26 09:45:13;;;;;;;4.17;2.20;;;16.30;99.90;;;;;;4960474;29;20550;-78
2023/09/26 09:47:42;;;;;;;5.73;2.30;;;16.30;99.90;;;;;;4971646;28;20186;-78
2023/09/26 09:50:08;;;;;;;3.17;2.30;;;16.40;99.90;;;;;;4979606;28;20190;-78
2023/09/26 09:52:35;;;;;;;3.37;2.13;;;16.50;99.90;;;;;;4979489;28;20241;-77
2023/09/26 09:55:08;;;;;;;3.17;2.00;;;16.60;99.90;;;;;;4980052;28;20209;-78
2023/09/26 09:57:37;;;;;;;3.77;2.07;;;16.70;99.90;;;;;;4969690;28;20219;-79
2023/09/26 10:00:05;;;;;;;7.83;2.17;;;16.90;99.90;;;;;;4978082;28;20202;-78
2023/09/26 10:02:31;;;;;;;3.70;2.23;;;16.90;99.90;;;;;;4979507;28;20277;-78
2023/09/26 10:05:00;;;;;;;3.90;1.87;;;17.00;99.90;;;;;;4979462;28;20228;-78
2023/09/26 10:07:27;;;;;;;5.17;2.17;;;17.00;99.90;;;;;;4980168;28;20254;-78
2023/09/26 10:09:54;;;;;;;2.97;1.83;;;17.10;99.90;;;;;;4961951;28;20250;-78
2023/09/26 10:12:20;;;;;;;3.73;1.97;;;17.20;99.90;;;;;;4960269;28;20187;-78
2023/09/26 10:14:46;;;;;;;3.00;1.83;;;17.30;99.90;;;;;;4960932;29;20195;-78
2023/09/26 10:17:14;;;;;;;2.60;2.00;;;17.40;99.90;;;;;;4958319;29;20178;-78
2023/09/26 10:19:40;;;;;;;3.73;1.70;;;17.50;99.90;;;;;;4971362;28;20189;-78
2023/09/26 10:22:15;;;;;;;5.07;1.90;;;17.60;99.90;;;;;;4978830;28;20575;-78
2023/09/26 10:24:53;;;;;;;4.37;1.90;;;17.70;99.90;;;;;;4978547;28;20198;-78
2023/09/26 10:27:31;;;;;;;3.30;1.60;;;17.80;99.90;;;;;;4978800;28;20603;-78
2023/09/26 10:29:57;;;;;;;2.67;1.70;;;17.80;92.80;;;;;;4977791;28;20573;-79
2023/09/26 10:32:38;;;;;;;4.60;1.83;;;17.90;40.40;;;;;;4978672;28;20195;-78
2023/09/26 10:35:15;;;;;;;2.90;1.97;;;18.00;99.90;;;;;;4979071;28;20159;-78
2023/09/26 10:37:45;;;;;;;2.70;1.83;;;18.00;99.90;;;;;;4976880;28;20213;-78
2023/09/26 10:40:14;;;;;;;3.83;1.83;;;18.10;91.00;;;;;;4977483;28;20194;-78
2023/09/26 10:42:45;;;;;;;5.80;1.90;;;18.10;1.00;;;;;;4976916;28;20217;-78
2023/09/26 10:45:11;;;;;;;2.93;1.80;;;18.30;1.00;;;;;;4977547;28;20182;-78
2023/09/26 10:47:39;;;;;;;5.40;1.97;;;18.40;99.90;;;;;;4978650;28;20527;-77
2023/09/26 10:50:12;;;;;;;3.47;1.73;;;18.40;99.90;;;;;;4977900;28;20230;-76
2023/09/26 10:52:46;;;;;;;4.40;1.67;;;18.50;1.00;;;;;;4975998;28;20206;-78
2023/09/26 10:55:16;;;;;;;3.00;1.80;;;18.60;1.00;;;;;;4977512;28;20201;-78
2023/09/26 10:57:45;;;;;;;2.60;1.90;;;18.60;99.90;;;;;;4979085;28;20170;-78
2023/09/26 11:00:13;;;;;;;2.63;1.77;;;18.50;1.00;;;;;;4978177;28;20496;-78
2023/09/26 11:02:39;;;;;;;3.97;1.63;;;18.60;95.70;;;;;;4977257;28;20790;-79
2023/09/26 11:05:08;;;;;;;2.93;1.60;;;18.70;99.90;;;;;;4976857;28;20190;-78
2023/09/26 11:07:35;;;;;;;3.57;2.03;;;18.80;1.00;;;;;;4979064;28;20170;-78
2023/09/26 11:10:03;;;;;;;4.50;2.27;;;18.80;1.00;;;;;;4979499;28;20206;-80
2023/09/26 11:12:29;;;;;;;4.27;1.87;;;18.90;99.90;;;;;;4975895;28;20238;-78
2023/09/26 11:14:55;;;;;;;4.07;1.90;;;18.90;99.90;;;;;;4976753;28;20681;-78
2023/09/26 11:17:23;;;;;;;2.40;1.63;;;19.00;99.90;;;;;;4977197;28;20174;-78
2023/09/26 11:19:50;;;;;;;3.73;1.50;;;19.00;99.90;;;;;;4978834;28;20178;-78
2023/09/26 11:22:16;;;;;;;2.93;1.80;;;19.20;99.90;;;;;;4975012;28;20234;-78
2023/09/26 11:24:41;;;;;;;4.17;1.70;;;19.20;99.90;;;;;;4978460;28;20183;-78
2023/09/26 11:27:08;;;;;;;4.93;2.03;;;19.30;99.90;;;;;;4978661;28;20178;-78
2023/09/26 11:29:35;;;;;;;5.13;1.60;;;19.40;1.00;;;;;;4976935;28;20198;-78
2023/09/26 11:32:03;;;;;;;2.33;1.60;;;19.40;99.90;;;;;;4975915;28;20201;-78
2023/09/26 11:34:29;;;;;;;3.67;1.80;;;19.60;99.90;;;;;;4978550;28;20179;-78
2023/09/26 11:36:55;;;;;;;3.10;1.60;;;19.70;99.90;;;;;;4982263;28;20174;-78
2023/09/26 11:39:23;;;;;;;3.30;1.50;;;19.70;99.90;;;;;;4985942;28;20274;-78
2023/09/26 11:42:11;;;;;;;3.53;1.93;;;19.70;99.90;;;;;;4978715;28;20298;-78
2023/09/26 11:44:36;;;;;;;3.57;1.60;;;19.90;1.00;;;;;;4969952;29;20189;-78
2023/09/26 11:47:04;;;;;;;2.20;1.47;;;19.90;30.40;;;;;;4977425;28;20214;-78
2023/09/26 11:49:30;;;;;;;3.17;1.80;;;19.90;1.00;;;;;;4989274;28;20190;-78
2023/09/26 11:51:56;;;;;;;3.60;1.70;;;20.00;1.00;;;;;;4987942;28;20201;-78
2023/09/26 11:54:22;;;;;;;3.30;2.00;;;20.10;99.90;;;;;;4989093;28;20173;-78
2023/09/26 11:56:48;;;;;;;1.67;1.50;;;20.10;99.90;;;;;;4981544;28;20190;-78
2023/09/26 11:59:14;;;;;;;2.70;1.57;;;20.20;1.00;;;;;;4963939;28;20202;-78
2023/09/26 12:01:43;;;;;;;2.50;1.57;;;20.30;1.00;;;;;;4959971;28;20191;-78
2023/09/26 12:04:14;;;;;;;2.80;1.60;;;20.40;99.90;;;;;;4959779;29;20179;-79
2023/09/26 12:06:40;;;;;;;3.60;1.57;;;20.40;99.90;;;;;;4962553;28;20232;-80
2023/09/26 12:09:20;;;;;;;5.30;2.30;;;20.50;99.90;;;;;;4978144;28;20672;-78
2023/09/26 12:11:52;;;;;;;3.47;1.80;;;20.60;1.00;;;;;;4976774;28;20538;-78
2023/09/26 12:14:18;;;;;;;2.03;1.60;;;20.60;17.60;;;;;;4975483;28;20197;-79
2023/09/26 12:16:44;;;;;;;4.80;1.90;;;20.60;99.90;;;;;;4979079;28;20171;-79
2023/09/26 12:19:10;;;;;;;2.43;1.47;;;20.70;99.90;;;;;;4979068;28;20678;-79
2023/09/26 12:21:36;;;;;;;5.20;1.40;;;20.70;99.90;;;;;;4978882;28;20519;-79
2023/09/26 12:24:02;;;;;;;5.77;1.70;;;21.00;1.00;;;;;;4975897;28;20196;-79
2023/09/26 12:26:28;;;;;;;3.20;1.83;;;20.90;1.00;;;;;;4976678;28;20210;-79
2023/09/26 12:28:53;;;;;;;2.77;1.63;;;21.00;1.00;;;;;;4978283;28;20198;-79
2023/09/26 12:31:19;;;;;;;4.27;1.67;;;21.00;45.40;;;;;;4978616;28;20213;-79
2023/09/26 12:33:44;;;;;;;2.97;1.87;;;21.10;99.90;;;;;;4975436;28;20536;-77
2023/09/26 12:36:10;;;;;;;2.17;1.73;;;21.40;1.00;;;;;;4976595;28;20207;-78
2023/09/26 12:38:36;;;;;;;6.07;1.80;;;21.30;1.00;;;;;;4975677;28;20712;-77
2023/09/26 12:41:01;;;;;;;5.87;1.90;;;21.40;99.90;;;;;;4973749;28;20213;-78
2023/09/26 12:43:27;;;;;;;2.80;1.70;;;21.60;1.00;;;;;;4974201;28;20178;-77
2023/09/26 12:45:52;;;;;;;4.63;2.10;;;21.70;1.00;;;;;;4973703;28;20174;-77
2023/09/26 12:48:19;;;;;;;4.60;1.83;;;21.60;1.00;;;;;;4973039;28;20182;-77
2023/09/26 12:50:45;;;;;;;2.17;1.70;;;21.90;1.00;;;;;;4974436;28;20240;-76